Time;durP1;ratioP1;P1;durP2;ratioP2;P2;SDS_P1;SDS_P2;PMS_P1;PMS_P2;Temp;Humidity;BMP_temperature;BMP_pressure;BME280_temperature;BME280_humidity;BME280_pressure;Samples;Min_cycle;Max_cycle;Signal;HPM_P1;HPM_P2
2022/05/01 18:42:59;;;;;;;;;10.00;10.00;;;;;19.99;28.61;101247.78;6185591;22;1632672;-78
2022/05/01 18:45:25;;;;;;;;;9.25;9.00;;;;;19.86;28.86;101235.91;6298210;22;45838;-76
2022/05/01 18:47:52;;;;;;;;;10.25;9.75;;;;;19.73;29.31;101236.28;6300364;22;45542;-77
2022/05/01 18:50:21;;;;;;;;;11.00;10.00;;;;;19.63;29.49;101235.53;6300955;22;46190;-76
2022/05/01 18:52:48;;;;;;;;;11.00;10.00;;;;;19.50;29.38;101241.19;6303525;22;45560;-78
2022/05/01 18:55:18;;;;;;;;;9.50;9.00;;;;;19.35;29.72;101245.34;6302004;22;45966;-78
2022/05/01 18:57:47;;;;;;;;;10.50;9.50;;;;;19.29;29.58;101256.56;6301546;22;46761;-80
2022/05/01 19:00:14;;;;;;;;;10.25;10.00;;;;;19.14;30.06;101253.59;6301954;22;46229;-81
2022/05/01 19:02:40;;;;;;;;;8.00;8.00;;;;;18.98;30.02;101245.44;6300623;22;45720;-81
2022/05/01 19:05:06;;;;;;;;;10.00;10.00;;;;;18.87;30.61;101245.63;6302913;22;45588;-80
2022/05/01 19:07:43;;;;;;;;;10.50;9.00;;;;;18.68;30.55;101240.38;6301827;22;47384;-81
2022/05/01 19:10:08;;;;;;;;;9.50;8.50;;;;;18.65;30.75;101253.94;6274478;22;48137;-82
2022/05/01 19:13:02;;;;;;;;;9.75;8.25;;;;;18.49;31.62;101256.34;6301569;22;46146;-81
2022/05/01 19:15:50;;;;;;;;;10.00;10.00;;;;;18.34;32.02;101256.81;6303876;22;45751;-80
2022/05/01 19:18:19;;;;;;;;;11.25;11.00;;;;;18.17;33.43;101260.19;6303404;22;46608;-81
2022/05/01 19:21:22;;;;;;;;;11.50;11.00;;;;;18.07;32.83;101269.97;6274107;22;46286;-81
2022/05/01 19:27:20;;;;;;;;;12.00;12.00;;;;;17.74;34.07;101278.34;6302192;22;46049;-82
2022/05/01 19:29:55;;;;;;;;;11.25;10.00;;;;;17.62;34.07;101267.03;6273633;22;47989;-83
2022/05/01 19:32:52;;;;;;;;;9.75;9.00;;;;;17.54;34.33;101272.16;6300265;22;46181;-80
2022/05/01 19:35:31;;;;;;;;;11.75;10.75;;;;;17.46;34.77;101280.78;6145954;23;46147;-80
2022/05/01 19:37:56;;;;;;;;;15.00;13.25;;;;;17.38;34.67;101275.31;6139577;23;45755;-83
2022/05/01 19:40:30;;;;;;;;;11.50;10.75;;;;;17.32;34.85;101280.34;6137033;23;46809;-82
2022/05/01 19:43:11;;;;;;;;;13.00;11.25;;;;;17.24;34.86;101281.00;6138847;23;46130;-81
2022/05/01 19:46:01;;;;;;;;;12.50;12.50;;;;;17.19;35.20;101275.28;6142181;23;45918;-82
2022/05/01 19:54:40;;;;;;;;;16.00;14.00;;;;;16.93;35.92;101287.31;6142265;23;46340;-77
2022/05/01 19:57:09;;;;;;;;;13.00;12.75;;;;;16.92;35.99;101290.94;6143119;23;45770;-77
2022/05/01 19:59:36;;;;;;;;;16.00;13.50;;;;;16.89;36.19;101291.22;6142442;23;45942;-76
2022/05/01 20:02:03;;;;;;;;;16.50;15.00;;;;;16.83;35.90;101287.28;6142919;23;46498;-77
2022/05/01 20:04:30;;;;;;;;;15.75;15.25;;;;;16.81;36.45;101306.91;6144402;23;46117;-77
2022/05/01 20:06:56;;;;;;;;;12.25;12.25;;;;;16.76;36.08;101302.00;6144425;23;45844;-77
2022/05/01 20:09:22;;;;;;;;;11.50;11.50;;;;;16.70;36.29;101297.25;6144607;23;45590;-73
2022/05/01 20:11:50;;;;;;;;;15.00;13.25;;;;;16.67;36.37;101300.16;6229221;22;47532;-75
2022/05/01 20:14:16;;;;;;;;;16.50;15.50;;;;;16.62;36.43;101294.44;6294581;22;46613;-77
2022/05/01 20:16:45;;;;;;;;;13.25;13.25;;;;;16.58;36.55;101291.16;6298379;22;45613;-77
2022/05/01 20:19:13;;;;;;;;;12.00;10.75;;;;;16.57;36.75;101299.25;6298583;22;45646;-75
2022/05/01 20:21:44;;;;;;;;;17.25;16.00;;;;;16.55;36.55;101299.38;6299570;22;45655;-77
2022/05/01 20:24:29;;;;;;;;;16.00;15.75;;;;;16.53;36.72;101300.44;6272416;22;47156;-76
2022/05/01 20:27:12;;;;;;;;;15.00;12.75;;;;;16.52;36.66;101296.16;6300297;22;45868;-76
2022/05/01 20:29:48;;;;;;;;;16.00;14.50;;;;;16.50;36.91;101290.97;6301016;22;45573;-78
2022/05/01 20:32:39;;;;;;;;;15.25;13.50;;;;;16.49;36.73;101288.47;6299382;22;46512;-77
2022/05/01 20:35:13;;;;;;;;;17.50;15.00;;;;;16.50;36.91;101285.69;6271771;22;47364;-78
2022/05/01 20:37:44;;;;;;;;;13.75;13.25;;;;;16.51;36.77;101287.38;6272418;22;45628;-77
2022/05/01 20:40:15;;;;;;;;;17.25;14.50;;;;;16.47;36.90;101287.75;6272849;22;46320;-78
2022/05/01 20:43:02;;;;;;;;;15.25;14.25;;;;;16.49;37.08;101294.59;6299049;22;45816;-76
2022/05/01 20:45:46;;;;;;;;;16.25;14.25;;;;;16.48;37.05;101294.72;6300633;22;46127;-76
2022/05/01 20:48:18;;;;;;;;;15.75;14.50;;;;;16.43;37.08;101284.53;6300629;22;46142;-77
2022/05/01 20:51:01;;;;;;;;;14.25;13.50;;;;;16.44;36.91;101296.78;6300687;22;45568;-79
2022/05/01 20:53:33;;;;;;;;;13.25;12.00;;;;;16.43;36.99;101296.91;6271181;22;47861;-78
2022/05/01 20:56:01;;;;;;;;;15.50;14.50;;;;;16.40;37.10;101290.09;6300313;22;45985;-78
2022/05/01 20:58:28;;;;;;;;;12.00;11.75;;;;;16.37;37.04;101279.75;6271991;22;45772;-77
2022/05/01 21:00:55;;;;;;;;;16.00;15.00;;;;;16.40;36.89;101287.44;6272161;22;45565;-77
2022/05/01 21:03:22;;;;;;;;;15.50;13.00;;;;;16.38;37.32;101287.56;6300098;22;46532;-77
2022/05/01 21:05:48;;;;;;;;;15.00;12.25;;;;;16.38;37.58;101289.38;6300615;22;46031;-76
2022/05/01 21:08:17;;;;;;;;;13.00;12.00;;;;;16.37;37.40;101285.88;6272488;22;45710;-77
2022/05/01 21:10:52;;;;;;;;;13.25;13.00;;;;;16.36;37.33;101278.06;6273116;22;45577;-78
2022/05/01 21:13:20;;;;;;;;;17.50;15.25;;;;;16.30;37.66;101275.97;6299573;22;47307;-77
2022/05/01 21:15:46;;;;;;;;;14.00;13.00;;;;;16.31;37.52;101270.53;6273111;22;46612;-77
2022/05/01 21:18:13;;;;;;;;;15.25;14.25;;;;;16.29;37.37;101271.66;6300674;22;45486;-77
2022/05/01 21:20:39;;;;;;;;;13.25;13.00;;;;;16.28;37.36;101270.81;6300552;22;46024;-78
2022/05/01 21:23:05;;;;;;;;;18.75;15.00;;;;;16.28;37.59;101273.44;6299601;22;45636;-77
2022/05/01 21:25:31;;;;;;;;;16.25;15.50;;;;;16.21;37.59;101261.69;6298661;22;46752;-77
2022/05/01 21:27:57;;;;;;;;;17.50;16.25;;;;;16.22;37.58;101266.03;6300027;22;45948;-77
2022/05/01 21:33:07;;;;;;;;;14.00;13.00;;;;;16.20;37.58;101272.41;6299206;22;46103;-77
2022/05/01 21:35:32;;;;;;;;;15.25;14.75;;;;;16.19;37.64;101257.53;6300406;22;45838;-75
2022/05/01 21:37:58;;;;;;;;;14.25;14.00;;;;;16.18;37.35;101264.63;6300592;22;45510;-77
2022/05/01 21:40:24;;;;;;;;;15.25;15.25;;;;;16.18;37.68;101269.91;6300722;22;46001;-77
2022/05/01 21:42:51;;;;;;;;;16.00;14.75;;;;;16.18;37.60;101261.97;6298038;22;46980;-77
2022/05/01 21:45:16;;;;;;;;;14.25;14.00;;;;;16.17;37.61;101252.34;6300529;22;46105;-76
2022/05/01 21:47:42;;;;;;;;;15.50;13.00;;;;;16.15;37.58;101245.50;6300199;22;45670;-76
2022/05/01 21:50:08;;;;;;;;;15.25;11.75;;;;;16.17;37.75;101248.88;6299800;22;45427;-76
2022/05/01 21:52:33;;;;;;;;;12.50;12.50;;;;;16.19;37.66;101246.94;6299388;22;46309;-76
2022/05/01 21:54:59;;;;;;;;;15.50;13.75;;;;;16.22;37.65;101251.97;6272257;22;48067;-77
2022/05/01 21:57:24;;;;;;;;;15.75;14.50;;;;;16.20;37.52;101246.81;6300421;22;46113;-76
2022/05/01 21:59:50;;;;;;;;;14.75;14.75;;;;;16.16;37.78;101240.09;6272061;22;45600;-76
2022/05/01 22:02:16;;;;;;;;;14.00;14.00;;;;;16.17;37.97;101248.88;6271216;22;48128;-77
2022/05/01 22:04:42;;;;;;;;;14.50;13.00;;;;;16.15;37.94;101240.22;6299381;22;46244;-77
2022/05/01 22:07:08;;;;;;;;;14.75;13.50;;;;;16.15;37.62;101243.72;6299964;22;45497;-76
2022/05/01 22:09:34;;;;;;;;;13.75;13.75;;;;;16.12;37.79;101241.34;6301298;22;45616;-77
2022/05/01 22:11:59;;;;;;;;;16.00;13.75;;;;;16.07;38.05;101232.13;6246495;22;48253;-76
2022/05/01 22:14:25;;;;;;;;;12.75;12.25;;;;;16.11;38.08;101241.44;6300486;22;46369;-78
2022/05/01 22:17:08;;;;;;;;;15.50;15.00;;;;;16.04;38.38;101243.78;6273099;22;45605;-78
2022/05/01 22:19:43;;;;;;;;;19.50;18.75;;;;;16.05;38.30;101247.25;6301215;22;45600;-78
2022/05/01 22:22:11;;;;;;;;;24.50;21.50;;;;;16.01;38.52;101243.19;6300351;22;46786;-76
2022/05/01 22:24:37;;;;;;;;;31.25;24.50;;;;;15.92;38.59;101239.53;6300347;22;47081;-75
2022/05/01 22:27:05;;;;;;;;;26.25;22.00;;;;;15.85;39.17;101241.00;6300543;22;45488;-76
2022/05/01 22:29:31;;;;;;;;;21.25;19.00;;;;;15.86;39.24;101243.53;6301638;22;45607;-76
2022/05/01 22:31:56;;;;;;;;;26.00;21.50;;;;;15.79;39.40;101244.16;6300150;22;46894;-77
2022/05/01 22:34:22;;;;;;;;;23.00;21.00;;;;;15.74;40.17;101249.81;6273520;22;46410;-76
2022/05/01 22:39:31;;;;;;;;;23.00;18.00;;;;;15.61;40.06;101243.00;6301415;22;45641;-77
2022/05/01 22:41:57;;;;;;;;;19.50;18.25;;;;;15.51;40.52;101230.56;6299969;22;46064;-78
2022/05/01 22:44:23;;;;;;;;;22.00;18.50;;;;;15.49;40.68;101234.28;6300481;22;46452;-78
2022/05/01 22:46:48;;;;;;;;;20.50;17.50;;;;;15.44;40.75;101234.63;6299130;22;45610;-77
2022/05/01 22:49:14;;;;;;;;;24.00;18.25;;;;;15.41;41.04;101236.69;6273545;22;45766;-77
2022/05/01 22:51:40;;;;;;;;;17.50;17.00;;;;;15.32;41.17;101232.16;6299770;22;47369;-77
2022/05/01 22:54:05;;;;;;;;;19.00;18.00;;;;;15.28;41.47;101233.34;6300990;22;45513;-76
2022/05/01 22:56:31;;;;;;;;;17.75;15.50;;;;;15.25;41.48;101238.88;6300616;22;45595;-77
2022/05/01 22:58:57;;;;;;;;;16.75;16.00;;;;;15.26;41.52;101238.78;6301393;22;45699;-76
2022/05/01 23:01:26;;;;;;;;;20.25;17.25;;;;;15.21;41.87;101240.94;6299976;22;46691;-75
2022/05/01 23:03:52;;;;;;;;;16.00;14.75;;;;;15.16;42.50;101237.00;6301298;22;46126;-76
2022/05/01 23:06:17;;;;;;;;;15.75;15.00;;;;;15.11;42.75;101238.19;6299166;22;45875;-76
2022/05/01 23:08:42;;;;;;;;;19.25;18.50;;;;;15.11;42.79;101245.28;6301360;22;45753;-77
2022/05/01 23:11:08;;;;;;;;;19.50;18.25;;;;;15.07;43.08;101238.56;6299976;22;47386;-76
2022/05/01 23:13:33;;;;;;;;;16.75;15.25;;;;;15.02;42.98;101240.72;6300880;22;46053;-76
2022/05/01 23:15:58;;;;;;;;;15.75;14.50;;;;;14.97;42.96;101240.25;6273094;22;45795;-76
2022/05/01 23:18:24;;;;;;;;;21.00;18.50;;;;;14.92;43.09;101231.84;6299043;22;45893;-77
2022/05/01 23:20:52;;;;;;;;;17.00;15.25;;;;;14.90;43.12;101239.88;6300241;22;45785;-77
2022/05/01 23:23:19;;;;;;;;;16.50;15.75;;;;;14.89;43.30;101232.97;6301011;22;46825;-77
2022/05/01 23:25:45;;;;;;;;;19.25;17.25;;;;;14.82;43.68;101237.03;6301449;22;45791;-77
2022/05/01 23:28:11;;;;;;;;;15.25;15.00;;;;;14.78;43.53;101225.03;6301094;22;45565;-76
2022/05/01 23:30:37;;;;;;;;;17.00;16.00;;;;;14.76;43.68;101228.75;6300852;22;46322;-76
2022/05/01 23:33:04;;;;;;;;;20.25;18.00;;;;;14.75;43.83;101229.69;6272896;22;46146;-76
2022/05/01 23:35:29;;;;;;;;;20.00;19.00;;;;;14.70;44.13;101224.78;6300551;22;45588;-76
2022/05/01 23:37:56;;;;;;;;;17.50;15.50;;;;;14.68;43.77;101221.47;6272832;22;45553;-76
2022/05/01 23:40:23;;;;;;;;;16.25;15.00;;;;;14.67;44.06;101222.41;6301042;22;45612;-77
2022/05/01 23:42:49;;;;;;;;;16.25;15.25;;;;;14.64;43.60;101222.63;6299677;22;46098;-76
2022/05/01 23:45:14;;;;;;;;;18.00;14.50;;;;;14.61;43.81;101214.97;6300537;22;45617;-76
2022/05/01 23:47:43;;;;;;;;;20.75;18.75;;;;;14.64;44.54;101222.63;6300796;22;45650;-76
2022/05/01 23:50:09;;;;;;;;;17.75;16.25;;;;;14.61;44.10;101217.63;6301033;22;45547;-76
2022/05/01 23:52:34;;;;;;;;;17.75;15.50;;;;;14.59;44.38;101223.00;6299987;22;45830;-76
2022/05/01 23:55:01;;;;;;;;;15.50;14.00;;;;;14.57;44.15;101216.19;6272825;22;45654;-76
2022/05/01 23:57:26;;;;;;;;;13.75;12.25;;;;;14.60;44.21;101218.56;6300585;22;45602;-77
2022/05/01 23:59:51;;;;;;;;;16.00;15.00;;;;;14.57;44.10;101211.75;6272343;22;47531;-75
